Airfield :
LOGIN :

Register | Disclaimer

   EN    FR    IT 

 










Legend :    VFR   Marginal VFR   IFR   Intensive IFR   Very Intensive IFR
Visi :
Ceiling :
>= 8 km
>= 3000ft
5 to 8 km
1000 to 3000 ft
1500m to 5 km
500 to 1000 ft
800 to 1500m
200 to 500 ft
< 800m
< 200 ft
Symbols :   Thunderstorms  Fog  Heavy snow  Heavy precipitations  Wind > 20 kt
SIGMETs :     Misc.  Thunderstorms  Icing  Turbulence  Mountain Waves  Volcanic Ashes







- Airport Elevation : -11 ft
- IATA code : AMS


EHAM - Amsterdam Schiphol

CURRENT METAR :
  • 241225Z 17018KT 130V200 9999 FEW049 23/10 Q0997 NOSIG

EXPIRED METARs :
  • 241155Z 16018KT 110V190 9999 FEW049 24/11 Q0997 NOSIG
  • 241125Z 16017KT 9999 SCT045 22/11 Q0997 NOSIG
  • 241055Z 16019KT 120V180 9999 FEW045 23/11 Q0997 NOSIG
  • 241025Z 15016KT 120V180 9999 FEW040 22/11 Q0997 NOSIG
  • 240955Z 17015KT 130V190 CAVOK 21/11 Q0997 NOSIG
  • 240925Z 16014KT 130V190 CAVOK 21/12 Q0997 NOSIG

TAF TAF EHAM
Valid from the 24 at 12:00 until the 25 at 18:00 UTC


241107Z 2412/2518 16020G30KT CAVOK
PROB40
TEMPO 2416/2418 23025G38KT 6000 SHRA SCT050CB
BECMG 2418/2421 17010KT
TEMPO 2418/2423 7000 -RA -SHRA SCT030 SCT070CB
BECMG 2506/2509 15015G25KT
TEMPO 2514/2518 18020G30KT 6000 -RA -SHRA SCT025TCU OVC040
No reported NOTAMs for that airfield.



MET'MAP, your aeronautical weather chart ! - Copyright ORBIFLY December 2007 - Disclaimer

ORBIFLY MET'MAP TEAM :

Programming & Development : Alexandra Zaïnal
Concept & Development : Baudouin d'Aumeries
Co-Development & Prog : Marc-Olivier Méhu
Technical & hardware support : Manuel Goepfert

Contact : metmap@orbifly.com




SOURCES & CREDITS :

   NOAA